createdAt,value
2023-03-13T00:00:52.615Z,0.70
2023-03-13T00:03:01.617Z,0.50
2023-03-13T00:05:11.072Z,0.30
2023-03-13T00:07:21.484Z,0.53
2023-03-13T00:09:31.102Z,0.50
2023-03-13T00:11:40.489Z,0.60
2023-03-13T00:13:49.422Z,0.43
2023-03-13T00:16:01.831Z,0.40
2023-03-13T00:18:10.765Z,0.40
2023-03-13T00:20:19.645Z,0.40
2023-03-13T00:22:30.440Z,0.40
2023-03-13T00:24:39.452Z,0.53
2023-03-13T00:26:48.206Z,0.40
2023-03-13T00:28:56.788Z,0.40
2023-03-13T00:31:05.891Z,0.60
2023-03-13T00:33:14.619Z,0.67
2023-03-13T00:35:23.499Z,0.50
2023-03-13T00:37:35.674Z,0.40
2023-03-13T00:39:45.154Z,0.43
2023-03-13T00:41:53.821Z,0.50
2023-03-13T00:44:02.745Z,0.50
2023-03-13T00:46:11.959Z,0.80
2023-03-13T00:48:20.708Z,0.70
2023-03-13T00:50:29.895Z,0.37
2023-03-13T00:52:40.264Z,0.40
2023-03-13T00:54:49.431Z,0.40
2023-03-13T00:56:58.140Z,0.30
2023-03-13T00:59:06.796Z,0.57
2023-03-13T01:01:16.331Z,0.40
2023-03-13T01:03:27.054Z,0.43
2023-03-13T01:05:36.176Z,0.40
2023-03-13T01:07:46.939Z,0.47
2023-03-13T01:09:56.188Z,0.50
2023-03-13T01:12:05.467Z,0.30
2023-03-13T01:14:15.687Z,0.33
2023-03-13T01:16:25.167Z,0.47
2023-03-13T01:18:33.698Z,0.50
2023-03-13T01:20:42.549Z,0.40
2023-03-13T01:22:53.058Z,0.40
2023-03-13T01:25:01.805Z,0.40
2023-03-13T01:27:11.055Z,0.30
2023-03-13T01:29:20.045Z,0.40
2023-03-13T01:31:29.922Z,0.30
2023-03-13T01:33:38.708Z,0.30
2023-03-13T01:35:47.689Z,0.50
2023-03-13T01:37:58.431Z,0.40
2023-03-13T01:40:07.929Z,0.30
2023-03-13T01:42:16.581Z,0.40
2023-03-13T01:44:26.289Z,0.20
2023-03-13T01:46:35.240Z,0.30
2023-03-13T01:48:46.517Z,0.30
2023-03-13T01:50:56.030Z,0.40
2023-03-13T01:53:06.559Z,0.30
2023-03-13T01:55:17.286Z,0.40
2023-03-13T01:57:27.810Z,0.20
2023-03-13T01:59:39.903Z,0.37
2023-03-13T02:01:51.839Z,0.40
2023-03-13T02:04:00.919Z,0.50
2023-03-13T02:06:10.542Z,0.40
2023-03-13T02:08:23.658Z,0.20
2023-03-13T02:10:34.073Z,0.40
2023-03-13T02:12:43.593Z,0.40
2023-03-13T02:14:53.056Z,0.30
2023-03-13T02:17:02.849Z,0.23
2023-03-13T02:19:18.837Z,0.40
2023-03-13T02:21:33.421Z,0.30
2023-03-13T02:23:47.462Z,0.33
2023-03-13T02:25:58.760Z,0.50
2023-03-13T02:28:09.299Z,0.60
2023-03-13T02:30:18.057Z,0.27
2023-03-13T02:32:27.494Z,0.37
2023-03-13T02:34:37.646Z,0.40
2023-03-13T02:36:47.751Z,0.50
2023-03-13T02:38:58.735Z,0.50
2023-03-13T02:41:09.576Z,0.50
2023-03-13T02:43:20.683Z,0.50
2023-03-13T02:45:29.322Z,0.40
2023-03-13T02:47:38.544Z,0.60
2023-03-13T02:49:47.702Z,0.30
2023-03-13T02:51:56.916Z,0.60
2023-03-13T02:54:08.676Z,0.50
2023-03-13T02:56:19.953Z,0.40
2023-03-13T02:58:31.703Z,0.40
2023-03-13T03:00:42.429Z,0.37
2023-03-13T03:02:51.016Z,0.70
2023-03-13T03:04:59.707Z,0.40
2023-03-13T03:07:08.735Z,0.50
2023-03-13T03:09:17.686Z,1.00
2023-03-13T03:11:28.455Z,0.50
2023-03-13T03:13:37.617Z,0.73
2023-03-13T03:15:46.434Z,0.60
2023-03-13T03:17:55.437Z,0.60
2023-03-13T03:20:07.970Z,0.93
2023-03-13T03:22:16.722Z,0.70
2023-03-13T03:24:25.285Z,0.47
2023-03-13T03:26:36.144Z,0.43
2023-03-13T03:28:45.173Z,0.40
2023-03-13T03:30:54.990Z,0.80
2023-03-13T03:33:05.582Z,0.47
2023-03-13T03:35:14.382Z,0.53
2023-03-13T03:37:23.418Z,0.50
2023-03-13T03:39:32.476Z,0.40
2023-03-13T03:41:42.843Z,0.33
2023-03-13T03:43:52.357Z,0.50
2023-03-13T03:46:01.626Z,0.43
2023-03-13T03:48:10.709Z,0.60
2023-03-13T03:50:19.796Z,0.60
2023-03-13T03:52:28.504Z,0.70
2023-03-13T03:54:37.738Z,0.73
2023-03-13T03:56:48.141Z,0.80
2023-03-13T03:58:57.199Z,0.60
2023-03-13T04:01:05.932Z,0.60
2023-03-13T04:03:15.088Z,1.13
2023-03-13T04:05:24.627Z,0.50
2023-03-13T04:07:33.353Z,0.70
2023-03-13T04:09:42.046Z,0.60
2023-03-13T04:11:52.951Z,0.70
2023-03-13T04:14:01.902Z,0.70
2023-03-13T04:16:11.667Z,0.63
2023-03-13T04:18:20.930Z,0.77
2023-03-13T04:20:30.244Z,1.07
2023-03-13T04:22:39.018Z,0.93
2023-03-13T04:24:47.936Z,0.53
2023-03-13T04:26:58.606Z,0.40
2023-03-13T04:29:07.677Z,0.60
2023-03-13T04:31:16.409Z,0.40
2023-03-13T04:33:25.713Z,1.00
2023-03-13T04:35:34.670Z,0.70
2023-03-13T04:37:43.450Z,0.60
2023-03-13T04:39:51.965Z,0.70
2023-03-13T04:42:01.997Z,0.50
2023-03-13T04:44:10.687Z,0.37
2023-03-13T04:46:20.125Z,0.70
2023-03-13T04:48:29.314Z,0.70
2023-03-13T04:50:38.007Z,0.60
2023-03-13T04:52:49.167Z,0.80
2023-03-13T04:54:58.291Z,0.60
2023-03-13T04:57:09.215Z,0.60
2023-03-13T04:59:18.215Z,0.70
2023-03-13T05:01:26.902Z,0.80
2023-03-13T05:03:35.516Z,0.90
2023-03-13T05:05:44.592Z,0.97
2023-03-13T05:07:53.216Z,0.73
2023-03-13T05:10:02.058Z,0.70
2023-03-13T05:12:13.328Z,0.90
2023-03-13T05:14:22.156Z,0.77
2023-03-13T05:16:31.574Z,0.80
2023-03-13T05:18:40.953Z,0.80
2023-03-13T05:20:49.890Z,0.77
2023-03-13T05:22:58.929Z,0.90
2023-03-13T05:25:08.309Z,0.70
2023-03-13T05:27:18.723Z,1.40
2023-03-13T05:29:27.513Z,0.87
2023-03-13T05:31:36.198Z,1.00
2023-03-13T05:33:44.762Z,1.00
2023-03-13T05:35:53.481Z,1.27
2023-03-13T05:38:02.134Z,0.90
2023-03-13T05:40:12.533Z,1.50
2023-03-13T05:42:22.661Z,1.10
2023-03-13T05:44:31.804Z,1.40
2023-03-13T05:46:40.695Z,1.47
2023-03-13T05:48:49.348Z,1.80
2023-03-13T05:50:58.059Z,2.03
2023-03-13T05:53:07.087Z,1.53
2023-03-13T05:55:15.977Z,1.90
2023-03-13T05:57:25.939Z,1.33
2023-03-13T05:59:34.644Z,2.33
2023-03-13T06:01:43.645Z,1.43
2023-03-13T06:03:53.114Z,2.03
2023-03-13T06:06:04.019Z,2.03
2023-03-13T06:08:12.613Z,1.50
2023-03-13T06:10:21.156Z,1.47
2023-03-13T06:12:31.930Z,1.77
2023-03-13T06:14:40.550Z,2.13
2023-03-13T06:16:49.636Z,1.70
2023-03-13T06:18:58.445Z,1.47
2023-03-13T06:21:07.191Z,1.20
2023-03-13T06:23:16.270Z,1.43
2023-03-13T06:25:25.574Z,1.70
2023-03-13T06:27:36.529Z,1.30
2023-03-13T06:29:45.144Z,1.67
2023-03-13T06:31:54.925Z,1.70
2023-03-13T06:34:04.273Z,1.70
2023-03-13T06:36:13.200Z,1.90
2023-03-13T06:38:22.400Z,2.20
2023-03-13T06:40:32.206Z,1.90
2023-03-13T06:42:42.850Z,2.43
2023-03-13T06:44:51.446Z,2.70
2023-03-13T06:47:00.395Z,2.53
2023-03-13T06:49:09.500Z,2.37
2023-03-13T06:51:19.173Z,2.60
2023-03-13T06:53:28.062Z,2.33
2023-03-13T06:55:36.767Z,2.07
2023-03-13T06:57:51.240Z,2.00
2023-03-13T07:00:00.086Z,0.97
2023-03-13T07:02:08.907Z,1.47
2023-03-13T07:04:17.922Z,1.10
2023-03-13T07:06:27.374Z,1.20
2023-03-13T07:08:36.953Z,0.73
2023-03-13T07:10:48.870Z,0.90
2023-03-13T07:12:59.269Z,0.50
2023-03-13T07:15:09.026Z,0.80
2023-03-13T07:17:17.800Z,0.90
2023-03-13T07:19:27.915Z,0.60
2023-03-13T07:21:36.713Z,0.97
2023-03-13T07:23:45.686Z,0.80
2023-03-13T07:25:58.427Z,1.00
2023-03-13T07:28:09.384Z,1.20
2023-03-13T07:30:18.433Z,1.30
2023-03-13T07:32:27.187Z,1.03
2023-03-13T07:34:36.889Z,0.93
2023-03-13T07:36:45.961Z,0.50
2023-03-13T07:38:55.431Z,0.40
2023-03-13T07:41:03.955Z,0.67
2023-03-13T07:43:14.882Z,0.70
2023-03-13T07:45:27.359Z,0.60
2023-03-13T07:47:36.542Z,0.50
2023-03-13T07:49:46.982Z,0.40
2023-03-13T07:51:55.709Z,0.40
2023-03-13T07:54:04.689Z,0.60
2023-03-13T07:56:14.304Z,0.43
2023-03-13T07:58:25.178Z,0.50
2023-03-13T08:00:34.138Z,0.50
2023-03-13T08:02:43.219Z,0.47
2023-03-13T08:04:54.466Z,0.50
2023-03-13T08:07:03.629Z,0.60
2023-03-13T08:09:12.420Z,0.70
2023-03-13T08:11:21.703Z,0.77
2023-03-13T08:13:32.154Z,0.70
2023-03-13T08:15:41.197Z,0.70
2023-03-13T08:17:49.735Z,0.70
2023-03-13T08:19:59.164Z,0.60
2023-03-13T08:22:07.777Z,0.90
2023-03-13T08:24:16.474Z,0.50
2023-03-13T08:26:25.705Z,0.60
2023-03-13T08:28:36.515Z,0.53
2023-03-13T08:30:45.618Z,0.50
2023-03-13T08:32:54.219Z,0.50
2023-03-13T08:35:03.652Z,0.40
2023-03-13T08:37:13.932Z,0.43
2023-03-13T08:39:23.187Z,0.60
2023-03-13T08:41:33.908Z,0.50
2023-03-13T08:43:43.975Z,0.40
2023-03-13T08:45:57.149Z,0.60
2023-03-13T08:48:05.871Z,0.33
2023-03-13T08:50:14.442Z,0.47
2023-03-13T08:52:23.021Z,0.50
2023-03-13T08:54:33.616Z,0.43
2023-03-13T08:56:43.885Z,0.47
2023-03-13T08:58:54.802Z,0.60
2023-03-13T09:01:04.834Z,0.57
2023-03-13T09:03:13.483Z,0.40
2023-03-13T09:05:22.373Z,0.47
2023-03-13T09:07:31.179Z,0.50
2023-03-13T09:09:40.625Z,1.00
2023-03-13T09:11:49.586Z,0.60
2023-03-13T09:14:00.500Z,0.60
2023-03-13T09:16:10.105Z,0.60
2023-03-13T09:18:19.017Z,0.60
2023-03-13T09:20:27.897Z,0.73
2023-03-13T09:22:36.558Z,0.60
2023-03-13T09:24:46.505Z,0.53
2023-03-13T09:27:01.435Z,0.80
2023-03-13T09:29:12.148Z,0.60
2023-03-13T09:31:22.055Z,0.37
2023-03-13T09:33:30.856Z,0.60
2023-03-13T09:35:40.951Z,0.70
2023-03-13T09:37:50.063Z,0.90
2023-03-13T09:40:00.023Z,0.80
2023-03-13T09:42:13.208Z,1.00
2023-03-13T09:44:28.039Z,0.90
2023-03-13T09:46:40.632Z,1.00
2023-03-13T09:48:51.475Z,1.07
2023-03-13T09:51:04.564Z,1.03
2023-03-13T09:53:16.223Z,0.40
2023-03-13T09:55:27.029Z,0.80
2023-03-13T09:57:36.825Z,1.00
2023-03-13T09:59:50.279Z,0.80
2023-03-13T10:02:00.509Z,0.70
2023-03-13T10:04:10.403Z,0.90
2023-03-13T10:06:21.121Z,0.60
2023-03-13T10:08:32.807Z,0.83
2023-03-13T10:10:45.896Z,0.60
2023-03-13T10:12:55.516Z,0.57
2023-03-13T10:15:10.531Z,0.70
2023-03-13T10:17:25.127Z,0.70
2023-03-13T10:19:34.948Z,0.60
2023-03-13T10:21:44.904Z,0.50
2023-03-13T10:23:56.227Z,0.90
2023-03-13T10:26:05.118Z,0.73
2023-03-13T10:28:14.756Z,0.70
2023-03-13T10:30:26.774Z,0.50
2023-03-13T10:32:35.968Z,0.93
2023-03-13T10:34:51.860Z,1.13
2023-03-13T10:37:01.718Z,0.60
2023-03-13T10:39:10.999Z,0.50
2023-03-13T10:41:26.516Z,0.50
2023-03-13T10:43:35.564Z,0.70
2023-03-13T10:45:45.472Z,0.80
2023-03-13T10:47:57.068Z,0.80
2023-03-13T10:50:06.540Z,0.50
2023-03-13T10:52:29.789Z,0.77
2023-03-13T10:54:41.860Z,0.80
2023-03-13T10:56:51.619Z,1.00
2023-03-13T10:59:00.589Z,0.70
2023-03-13T11:01:18.932Z,0.80
2023-03-13T11:03:34.512Z,0.97
2023-03-13T11:05:44.445Z,1.10
2023-03-13T11:07:54.376Z,0.80
2023-03-13T11:10:04.662Z,0.60
2023-03-13T11:12:16.464Z,0.90
2023-03-13T11:14:26.598Z,1.10
2023-03-13T11:16:39.636Z,0.93
2023-03-13T11:19:03.548Z,0.87
2023-03-13T11:21:18.310Z,0.90
2023-03-13T11:23:29.945Z,0.60
2023-03-13T11:25:41.717Z,1.00
2023-03-13T11:27:52.849Z,1.00
2023-03-13T11:30:10.308Z,0.93
2023-03-13T11:32:25.600Z,0.80
2023-03-13T11:34:39.049Z,0.53
2023-03-13T11:36:50.830Z,1.07
2023-03-13T11:39:05.049Z,1.10
2023-03-13T11:41:18.597Z,0.80
2023-03-13T11:43:31.691Z,0.60
2023-03-13T11:45:59.804Z,0.70
2023-03-13T11:48:12.306Z,0.90
2023-03-13T11:50:25.797Z,0.73
2023-03-13T11:52:40.145Z,0.70
2023-03-13T11:54:55.821Z,0.70
2023-03-13T11:57:08.029Z,0.30
2023-03-13T11:59:25.922Z,0.67
2023-03-13T12:01:36.864Z,0.60
2023-03-13T12:03:53.739Z,0.70
2023-03-13T12:06:03.134Z,1.20
2023-03-13T12:08:14.646Z,0.70
2023-03-13T12:10:26.359Z,0.60
2023-03-13T12:12:43.001Z,0.87
2023-03-13T12:14:55.729Z,0.90
2023-03-13T12:17:06.019Z,0.60
2023-03-13T12:19:18.911Z,0.70
2023-03-13T12:21:30.971Z,0.70
2023-03-13T12:23:44.327Z,0.90
2023-03-13T12:25:55.489Z,0.87
2023-03-13T12:28:12.713Z,0.90
2023-03-13T12:30:24.694Z,0.70
2023-03-13T12:32:36.819Z,0.80
2023-03-13T12:34:53.105Z,1.00
2023-03-13T12:37:08.697Z,0.90
2023-03-13T12:39:22.746Z,1.00
2023-03-13T12:41:35.440Z,1.00
2023-03-13T12:43:57.188Z,1.10
2023-03-13T12:46:18.673Z,1.10
2023-03-13T12:48:55.332Z,0.90
2023-03-13T12:51:13.525Z,0.93
2023-03-13T12:53:31.549Z,1.07
2023-03-13T12:55:46.378Z,1.10
2023-03-13T12:58:10.782Z,0.80
2023-03-13T13:00:21.311Z,0.83
2023-03-13T13:02:32.138Z,0.90
2023-03-13T13:04:45.633Z,1.10
2023-03-13T13:06:58.464Z,0.93
2023-03-13T13:09:10.480Z,1.00
2023-03-13T13:11:37.920Z,1.10
2023-03-13T13:13:46.621Z,0.70
2023-03-13T13:16:02.272Z,1.30
2023-03-13T13:18:26.529Z,1.00
2023-03-13T13:20:44.584Z,1.20
2023-03-13T13:22:56.086Z,1.20
2023-03-13T13:25:24.844Z,1.23
2023-03-13T13:27:48.389Z,1.30
2023-03-13T13:29:58.698Z,1.60
2023-03-13T13:32:16.876Z,1.13
2023-03-13T13:34:55.908Z,1.30
2023-03-13T13:37:06.181Z,1.23
2023-03-13T13:39:24.923Z,1.40
2023-03-13T13:41:39.196Z,1.43
2023-03-13T13:43:49.387Z,1.30
2023-03-13T13:46:03.166Z,1.30
2023-03-13T13:48:28.504Z,1.40
2023-03-13T13:50:37.587Z,1.70
2023-03-13T13:52:46.588Z,1.60
2023-03-13T13:54:57.342Z,1.40
2023-03-13T13:57:10.725Z,1.60
2023-03-13T13:59:43.484Z,1.50
2023-03-13T14:02:13.800Z,1.60
2023-03-13T14:04:29.125Z,1.40
